Terminal Aerodrome Forecast
Issued by NWS

Home | Current Version | Previous Version | Text Only | Print | Product List | Glossary On
Versions: 1 2 3 4 5 6 7 8 9 10 11 12 13 14
381
FTUS41 KLWX 202056 AAA
TAFMTN
TAF AMD
KMTN 202056Z 2021/2118 29012G19KT P6SM FEW070
     FM210100 34008KT P6SM SKC
     FM211400 34004KT P6SM FEW150=

USA.gov is the U.S. government's official web portal to all federal, state and local government web resources and services.